createdAt,value
2017-07-04T00:01:57.364Z,15.30
2017-07-04T00:04:25.570Z,15.10
2017-07-04T00:06:53.838Z,14.90
2017-07-04T00:09:22.927Z,14.70
2017-07-04T00:11:51.921Z,14.70
2017-07-04T00:14:20.143Z,14.70
2017-07-04T00:16:48.339Z,14.50
2017-07-04T00:19:16.659Z,14.40
2017-07-04T00:21:44.856Z,14.40
2017-07-04T00:24:13.059Z,14.30
2017-07-04T00:26:41.308Z,14.30
2017-07-04T00:29:09.579Z,14.30
2017-07-04T00:31:37.866Z,14.20
2017-07-04T00:34:06.100Z,14.20
2017-07-04T00:36:35.067Z,14.00
2017-07-04T00:39:03.278Z,14.00
2017-07-04T00:41:32.268Z,13.90
2017-07-04T00:44:00.479Z,13.90
2017-07-04T00:46:28.735Z,13.90
2017-07-04T00:48:57.037Z,13.80
2017-07-04T00:51:25.272Z,13.90
2017-07-04T00:53:54.249Z,14.00
2017-07-04T00:56:22.671Z,14.00
2017-07-04T00:58:50.865Z,14.00
2017-07-04T01:01:19.062Z,14.10
2017-07-04T01:03:47.269Z,14.20
2017-07-04T01:06:15.469Z,14.20
2017-07-04T01:08:43.670Z,14.20
2017-07-04T01:11:11.952Z,14.30
2017-07-04T01:13:40.149Z,14.20
2017-07-04T01:16:08.341Z,14.20
2017-07-04T01:18:36.575Z,14.30
2017-07-04T01:21:05.030Z,14.30
2017-07-04T01:23:34.013Z,14.30
2017-07-04T01:26:02.215Z,14.30
2017-07-04T01:28:30.479Z,14.30
2017-07-04T01:30:59.445Z,14.40
2017-07-04T01:33:27.653Z,14.30
2017-07-04T01:35:55.917Z,14.40
2017-07-04T01:38:25.014Z,14.30
2017-07-04T01:40:53.989Z,14.20
2017-07-04T01:43:22.199Z,14.20
2017-07-04T01:45:50.469Z,14.30
2017-07-04T01:48:19.462Z,14.30
2017-07-04T01:50:47.656Z,14.20
2017-07-04T01:53:15.866Z,14.20
2017-07-04T01:55:44.069Z,14.10
2017-07-04T01:58:12.468Z,14.10
2017-07-04T02:00:41.445Z,14.10
2017-07-04T02:03:09.632Z,14.10
2017-07-04T02:05:38.606Z,14.00
2017-07-04T02:08:06.811Z,14.00
2017-07-04T02:10:35.022Z,14.00
2017-07-04T02:13:03.224Z,14.00
2017-07-04T02:15:31.415Z,14.00
2017-07-04T02:17:59.725Z,14.00
2017-07-04T02:20:27.917Z,14.00
2017-07-04T02:22:56.125Z,14.10
2017-07-04T02:25:24.353Z,14.10
2017-07-04T02:27:52.616Z,14.10
2017-07-04T02:30:21.616Z,14.20
2017-07-04T02:32:49.810Z,14.10
2017-07-04T02:35:18.073Z,14.20
2017-07-04T02:37:46.283Z,14.20
2017-07-04T02:40:14.483Z,14.20
2017-07-04T02:42:42.697Z,14.20
2017-07-04T02:45:10.899Z,14.10
2017-07-04T02:47:39.226Z,14.10
2017-07-04T02:50:07.532Z,14.10
2017-07-04T02:52:35.788Z,14.10
2017-07-04T02:55:03.981Z,14.10
2017-07-04T02:57:32.178Z,14.10
2017-07-04T03:00:00.386Z,14.00
2017-07-04T03:02:28.626Z,14.10
2017-07-04T03:04:56.848Z,14.00
2017-07-04T03:07:25.987Z,14.00
2017-07-04T03:09:54.184Z,14.00
2017-07-04T03:12:22.426Z,14.00
2017-07-04T03:14:51.393Z,14.00
2017-07-04T03:17:19.612Z,14.00
2017-07-04T03:19:47.811Z,14.10
2017-07-04T03:22:16.157Z,14.20
2017-07-04T03:24:45.165Z,14.20
2017-07-04T03:27:13.358Z,14.20
2017-07-04T03:29:41.623Z,14.20
2017-07-04T03:32:09.857Z,14.20
2017-07-04T03:34:38.057Z,14.20
2017-07-04T03:37:06.258Z,14.20
2017-07-04T03:39:34.466Z,14.30
2017-07-04T03:42:02.792Z,14.30
2017-07-04T03:44:31.056Z,14.30
2017-07-04T03:47:00.042Z,14.40
2017-07-04T03:49:28.234Z,14.40
2017-07-04T03:51:57.197Z,14.50
2017-07-04T03:54:25.421Z,14.40
2017-07-04T03:56:53.617Z,14.50
2017-07-04T03:59:21.840Z,14.50
2017-07-04T04:01:50.049Z,14.60
2017-07-04T04:04:18.261Z,14.60
2017-07-04T04:06:46.449Z,14.70
2017-07-04T04:09:14.664Z,14.70
2017-07-04T04:11:43.636Z,14.70
2017-07-04T04:14:11.834Z,14.70
2017-07-04T04:16:40.920Z,14.70
2017-07-04T04:19:10.029Z,14.70
2017-07-04T04:21:38.250Z,14.70
2017-07-04T04:24:06.456Z,14.70
2017-07-04T04:26:34.694Z,14.60
2017-07-04T04:29:03.147Z,14.60
2017-07-04T04:31:31.334Z,14.70
2017-07-04T04:33:59.688Z,14.80
2017-07-04T04:36:27.959Z,14.80
2017-07-04T04:38:56.946Z,14.90
2017-07-04T04:41:25.337Z,14.90
2017-07-04T04:43:54.367Z,15.10
2017-07-04T04:46:22.722Z,15.10
2017-07-04T04:48:51.697Z,15.20
2017-07-04T04:51:20.098Z,15.20
2017-07-04T04:53:48.395Z,15.30
2017-07-04T04:56:16.593Z,15.30
2017-07-04T04:58:44.815Z,15.40
2017-07-04T05:01:13.030Z,15.50
2017-07-04T05:03:41.477Z,15.50
2017-07-04T05:06:09.741Z,15.60
2017-07-04T05:08:38.859Z,15.80
2017-07-04T05:11:07.118Z,15.80
2017-07-04T05:13:36.106Z,15.90
2017-07-04T05:16:04.289Z,15.90
2017-07-04T05:18:33.275Z,16.10
2017-07-04T05:21:01.485Z,16.10
2017-07-04T05:23:29.747Z,16.30
2017-07-04T05:25:57.998Z,17.30
2017-07-04T05:28:26.203Z,18.80
2017-07-04T05:30:54.419Z,20.10
2017-07-04T05:33:22.618Z,21.30
2017-07-04T05:35:50.913Z,22.70
2017-07-04T05:38:19.899Z,24.10
2017-07-04T05:40:48.093Z,24.10
2017-07-04T05:43:17.074Z,25.90
2017-07-04T05:45:45.267Z,25.90
2017-07-04T05:48:13.536Z,27.20
2017-07-04T05:50:42.585Z,28.80
2017-07-04T05:53:10.787Z,28.70
2017-07-04T05:55:38.984Z,29.30
2017-07-04T05:58:07.955Z,30.10
2017-07-04T06:00:36.158Z,30.10
2017-07-04T06:03:05.144Z,30.90
2017-07-04T06:05:33.337Z,30.80
2017-07-04T06:08:01.556Z,31.20
2017-07-04T06:10:29.771Z,31.60
2017-07-04T06:12:58.044Z,32.00
2017-07-04T06:15:26.197Z,32.60
2017-07-04T06:17:54.395Z,32.60
2017-07-04T06:20:22.622Z,33.20
2017-07-04T06:22:50.821Z,33.60
2017-07-04T06:25:19.143Z,34.00
2017-07-04T06:27:48.130Z,34.30
2017-07-04T06:30:16.361Z,34.30
2017-07-04T06:32:44.609Z,34.40
2017-07-04T06:35:12.919Z,34.80
2017-07-04T06:37:41.119Z,35.00
2017-07-04T06:40:09.327Z,35.60
2017-07-04T06:42:37.535Z,36.60
2017-07-04T06:45:05.745Z,37.20
2017-07-04T06:47:33.952Z,37.70
2017-07-04T06:50:02.186Z,38.30
2017-07-04T06:52:30.382Z,38.40
2017-07-04T06:54:59.386Z,39.20
2017-07-04T06:57:27.597Z,39.10
2017-07-04T06:59:55.827Z,39.00
2017-07-04T07:02:24.035Z,38.40
2017-07-04T07:04:52.489Z,37.90
2017-07-04T07:07:20.658Z,37.20
2017-07-04T07:09:48.865Z,36.30
2017-07-04T07:12:17.130Z,36.40
2017-07-04T07:14:45.339Z,36.90
2017-07-04T07:17:13.597Z,37.20
2017-07-04T07:19:41.871Z,38.80
2017-07-04T07:22:10.902Z,39.90
2017-07-04T07:24:39.240Z,39.90
2017-07-04T07:27:07.459Z,39.00
2017-07-04T07:29:35.661Z,38.60
2017-07-04T07:32:03.919Z,38.80
2017-07-04T07:34:32.149Z,38.20
2017-07-04T07:37:01.169Z,37.50
2017-07-04T07:39:29.476Z,37.40
2017-07-04T07:41:57.718Z,38.30
2017-07-04T07:44:25.958Z,38.70
2017-07-04T07:46:54.153Z,38.90
2017-07-04T07:49:22.421Z,39.70
2017-07-04T07:51:51.415Z,39.70
2017-07-04T07:54:19.642Z,39.70
2017-07-04T07:56:47.850Z,39.90
2017-07-04T07:59:16.130Z,40.60
2017-07-04T08:01:45.115Z,39.00
2017-07-04T08:04:13.323Z,39.00
2017-07-04T08:06:41.566Z,39.30
2017-07-04T08:09:09.770Z,39.70
2017-07-04T08:11:38.176Z,38.70
2017-07-04T08:14:06.386Z,38.60
2017-07-04T08:16:34.582Z,39.70
2017-07-04T08:19:02.791Z,40.60
2017-07-04T08:21:30.993Z,40.00
2017-07-04T08:23:59.209Z,40.30
2017-07-04T08:26:27.414Z,39.20
2017-07-04T08:28:55.614Z,37.80
2017-07-04T08:31:23.838Z,36.50
2017-07-04T08:33:52.048Z,37.00
2017-07-04T08:36:20.291Z,37.00
2017-07-04T08:38:48.516Z,37.50
2017-07-04T08:41:16.730Z,38.20
2017-07-04T08:43:44.940Z,38.90
2017-07-04T08:46:13.912Z,35.50
2017-07-04T08:48:42.109Z,35.40
2017-07-04T08:51:11.090Z,32.70
2017-07-04T08:53:39.299Z,32.60
2017-07-04T08:56:07.499Z,32.30
2017-07-04T08:58:35.727Z,31.70
2017-07-04T09:01:03.945Z,33.60
2017-07-04T09:03:32.161Z,35.50
2017-07-04T09:06:00.363Z,36.70
2017-07-04T09:08:28.582Z,37.40
2017-07-04T09:10:56.794Z,36.40
2017-07-04T09:13:25.089Z,34.80
2017-07-04T09:15:54.069Z,36.70
2017-07-04T09:18:22.277Z,36.70
2017-07-04T09:20:50.493Z,38.10
2017-07-04T09:23:18.690Z,38.70
2017-07-04T09:25:46.898Z,38.50
2017-07-04T09:28:15.115Z,39.10
2017-07-04T09:30:43.306Z,38.70
2017-07-04T09:33:11.519Z,38.20
2017-07-04T09:35:39.728Z,36.50
2017-07-04T09:38:07.938Z,35.00
2017-07-04T09:40:36.161Z,34.60
2017-07-04T09:43:04.346Z,36.40
2017-07-04T09:45:32.549Z,35.20
2017-07-04T09:48:00.760Z,34.80
2017-07-04T09:50:29.027Z,34.60
2017-07-04T09:52:57.236Z,34.40
2017-07-04T09:55:25.478Z,35.40
2017-07-04T09:57:53.761Z,36.10
2017-07-04T10:00:21.913Z,35.70
2017-07-04T10:02:50.128Z,35.00
2017-07-04T10:05:18.335Z,34.20
2017-07-04T10:07:46.578Z,35.20
2017-07-04T10:10:15.564Z,36.70
2017-07-04T10:12:43.762Z,36.80
2017-07-04T10:15:11.961Z,38.00
2017-07-04T10:17:40.181Z,39.30
2017-07-04T10:20:08.379Z,39.50
2017-07-04T10:22:36.633Z,39.10
2017-07-04T10:25:04.921Z,37.70
2017-07-04T10:27:33.905Z,38.20
2017-07-04T10:30:02.130Z,38.20
2017-07-04T10:32:30.375Z,38.60
2017-07-04T10:34:59.344Z,37.40
2017-07-04T10:37:27.536Z,37.30
2017-07-04T10:39:55.827Z,37.00
2017-07-04T10:42:24.790Z,34.40
2017-07-04T10:44:52.993Z,34.40
2017-07-04T10:47:21.279Z,34.00
2017-07-04T10:49:49.543Z,34.60
2017-07-04T10:52:18.738Z,36.40
2017-07-04T10:54:46.914Z,36.40
2017-07-04T10:57:15.906Z,38.20
2017-07-04T10:59:44.108Z,38.20
2017-07-04T11:02:12.387Z,38.70
2017-07-04T11:04:40.601Z,38.60
2017-07-04T11:07:08.855Z,38.00
2017-07-04T11:09:37.223Z,37.00
2017-07-04T11:12:05.423Z,35.30
2017-07-04T11:14:33.646Z,34.10
2017-07-04T11:17:01.853Z,32.50
2017-07-04T11:19:30.111Z,31.40
2017-07-04T11:21:59.087Z,30.60
2017-07-04T11:24:28.302Z,30.60
2017-07-04T11:26:56.588Z,30.00
2017-07-04T11:29:24.815Z,29.70
2017-07-04T11:31:53.013Z,29.40
2017-07-04T11:34:21.226Z,29.40
2017-07-04T11:36:49.429Z,29.10
2017-07-04T11:39:17.650Z,29.00
2017-07-04T11:41:45.850Z,28.60
2017-07-04T11:44:14.065Z,28.20
2017-07-04T11:46:42.282Z,28.10
2017-07-04T11:49:10.475Z,28.40
2017-07-04T11:51:38.688Z,28.30
2017-07-04T11:54:06.909Z,28.10
2017-07-04T11:56:35.113Z,28.00
2017-07-04T11:59:03.314Z,28.10
2017-07-04T12:01:31.735Z,28.20
2017-07-04T12:03:59.922Z,28.30
2017-07-04T12:06:28.886Z,28.50
2017-07-04T12:08:57.112Z,28.50
2017-07-04T12:11:25.392Z,28.70
2017-07-04T12:13:53.606Z,28.80
2017-07-04T12:16:21.923Z,28.40
2017-07-04T12:18:50.900Z,28.30
2017-07-04T12:21:19.125Z,28.30
2017-07-04T12:23:47.391Z,27.80
2017-07-04T12:26:16.337Z,27.30
2017-07-04T12:28:44.567Z,27.30
2017-07-04T12:31:12.767Z,27.30
2017-07-04T12:33:41.002Z,27.20
2017-07-04T12:36:09.195Z,27.40
2017-07-04T12:38:37.414Z,27.60
2017-07-04T12:41:05.718Z,27.60
2017-07-04T12:43:34.682Z,27.50
2017-07-04T12:46:02.893Z,27.50
2017-07-04T12:48:31.108Z,27.30
2017-07-04T12:50:59.336Z,27.30
2017-07-04T12:53:27.536Z,27.40
2017-07-04T12:55:55.749Z,27.60
2017-07-04T12:58:23.965Z,27.70
2017-07-04T13:00:52.171Z,27.60
2017-07-04T13:03:20.358Z,27.40
2017-07-04T13:05:48.571Z,27.50
2017-07-04T13:08:16.772Z,27.80
2017-07-04T13:10:45.746Z,27.70
2017-07-04T13:13:13.961Z,27.70
2017-07-04T13:15:42.158Z,27.70
2017-07-04T13:18:10.371Z,27.80
2017-07-04T13:20:38.559Z,27.60
2017-07-04T13:23:06.784Z,27.30
2017-07-04T13:25:35.063Z,27.40
2017-07-04T13:28:03.242Z,27.90
2017-07-04T13:30:31.511Z,28.10
2017-07-04T13:32:59.715Z,28.10
2017-07-04T13:35:27.932Z,28.10
2017-07-04T13:37:56.138Z,28.00
2017-07-04T13:40:24.348Z,27.80
2017-07-04T13:42:52.582Z,27.70
2017-07-04T13:45:21.593Z,28.10
2017-07-04T13:47:49.803Z,28.10
2017-07-04T13:50:18.036Z,28.10
2017-07-04T13:52:46.250Z,27.90
2017-07-04T13:55:14.474Z,28.00
2017-07-04T13:57:42.670Z,28.20
2017-07-04T14:00:10.963Z,28.30
2017-07-04T14:02:39.159Z,28.30
2017-07-04T14:05:07.382Z,28.40
2017-07-04T14:07:35.601Z,28.70
2017-07-04T14:10:03.798Z,28.90
2017-07-04T14:12:32.014Z,29.10
2017-07-04T14:15:00.214Z,28.80
2017-07-04T14:17:28.739Z,28.70
2017-07-04T14:19:57.685Z,28.70
2017-07-04T14:22:25.926Z,28.60
2017-07-04T14:24:54.162Z,28.30
2017-07-04T14:27:22.372Z,28.00
2017-07-04T14:29:50.598Z,27.90
2017-07-04T14:32:18.820Z,28.20
2017-07-04T14:34:47.027Z,28.40
2017-07-04T14:37:15.250Z,28.50
2017-07-04T14:39:43.457Z,28.30
2017-07-04T14:42:11.666Z,28.00
2017-07-04T14:44:40.006Z,27.90
2017-07-04T14:47:08.214Z,28.20
2017-07-04T14:49:36.651Z,28.40
2017-07-04T14:52:04.861Z,28.60
2017-07-04T14:54:33.093Z,28.60
2017-07-04T14:57:02.071Z,28.60
2017-07-04T14:59:30.351Z,28.60
2017-07-04T15:01:58.514Z,28.80
2017-07-04T15:04:26.747Z,28.70
2017-07-04T15:06:54.974Z,28.40
2017-07-04T15:09:23.190Z,28.00
2017-07-04T15:11:51.411Z,27.70
2017-07-04T15:14:19.731Z,27.40
2017-07-04T15:16:48.702Z,27.80
2017-07-04T15:19:16.917Z,27.80
2017-07-04T15:21:45.126Z,28.30
2017-07-04T15:24:13.331Z,28.50
2017-07-04T15:26:41.563Z,28.90
2017-07-04T15:29:09.863Z,28.70
2017-07-04T15:31:38.085Z,28.60
2017-07-04T15:34:06.394Z,28.80
2017-07-04T15:36:35.258Z,28.70
2017-07-04T15:39:03.475Z,28.80
2017-07-04T15:45:24.465Z,28.50
2017-07-04T15:47:52.687Z,28.50
2017-07-04T15:50:20.890Z,28.30
2017-07-04T15:52:49.486Z,28.10
2017-07-04T15:55:17.696Z,27.90
2017-07-04T15:57:45.938Z,27.80
2017-07-04T16:00:14.098Z,27.70
2017-07-04T16:02:42.320Z,27.50
2017-07-04T16:05:10.583Z,27.40
2017-07-04T16:07:39.617Z,27.00
2017-07-04T16:10:07.814Z,27.00
2017-07-04T16:12:36.027Z,26.70
2017-07-04T16:15:05.177Z,26.30
2017-07-04T16:17:33.407Z,26.30
2017-07-04T16:20:01.611Z,26.20
2017-07-04T16:22:29.886Z,26.00
2017-07-04T16:24:58.192Z,26.30
2017-07-04T16:27:26.456Z,26.40
2017-07-04T16:29:55.442Z,26.60
2017-07-04T16:32:23.664Z,26.60
2017-07-04T16:34:51.998Z,26.80
2017-07-04T16:37:20.158Z,27.00
2017-07-04T16:39:48.370Z,27.00
2017-07-04T16:42:16.570Z,27.10
2017-07-04T16:44:45.031Z,27.20
2017-07-04T16:47:13.243Z,27.20
2017-07-04T16:49:41.475Z,27.40
2017-07-04T16:52:09.893Z,27.40
2017-07-04T16:54:38.117Z,27.40
2017-07-04T16:57:06.326Z,27.40
2017-07-04T16:59:34.530Z,27.40
2017-07-04T17:02:02.847Z,27.30
2017-07-04T17:04:31.060Z,27.10
2017-07-04T17:06:59.260Z,26.90
2017-07-04T17:09:28.596Z,26.70
2017-07-04T17:11:57.768Z,26.70
2017-07-04T17:14:27.084Z,26.50
2017-07-04T17:16:57.477Z,26.30
2017-07-04T17:19:26.491Z,26.10
2017-07-04T17:21:55.548Z,26.00
2017-07-04T17:24:24.881Z,26.00
2017-07-04T17:26:54.433Z,25.80
2017-07-04T17:29:24.004Z,25.80
2017-07-04T17:31:53.444Z,25.80
2017-07-04T17:34:21.964Z,25.50
2017-07-04T17:36:51.519Z,25.40
2017-07-04T17:39:21.579Z,24.90
2017-07-04T17:41:50.972Z,24.80
2017-07-04T17:44:20.273Z,24.80
2017-07-04T17:46:49.627Z,24.80
2017-07-04T17:49:18.959Z,24.60
2017-07-04T17:51:48.471Z,24.40
2017-07-04T17:54:17.862Z,24.20
2017-07-04T17:56:47.109Z,24.10
2017-07-04T17:59:16.485Z,24.00
2017-07-04T18:01:45.573Z,23.90
2017-07-04T18:04:14.803Z,23.70
2017-07-04T18:06:43.499Z,23.60
2017-07-04T18:09:13.085Z,23.40
2017-07-04T18:11:42.536Z,23.20
2017-07-04T18:14:12.156Z,23.00
2017-07-04T18:16:41.659Z,22.70
2017-07-04T18:19:10.936Z,22.60
2017-07-04T18:21:40.234Z,22.50
2017-07-04T18:24:09.552Z,22.50
2017-07-04T18:26:40.199Z,22.30
2017-07-04T18:29:10.652Z,22.10
2017-07-04T18:31:40.618Z,22.10
2017-07-04T18:34:10.184Z,22.10
2017-07-04T18:36:39.747Z,22.00
2017-07-04T18:39:09.743Z,22.00
2017-07-04T18:41:41.421Z,21.80
2017-07-04T18:44:10.881Z,21.70
2017-07-04T18:46:39.992Z,21.70
2017-07-04T18:49:09.222Z,21.70
2017-07-04T18:51:38.550Z,21.60
2017-07-04T18:54:07.890Z,21.50
2017-07-04T18:56:37.236Z,21.40
2017-07-04T18:59:06.705Z,21.40
2017-07-04T19:01:36.876Z,21.10
2017-07-04T19:04:06.709Z,21.10
2017-07-04T19:06:36.339Z,21.10
2017-07-04T19:09:07.076Z,21.10
2017-07-04T19:11:36.918Z,21.00
2017-07-04T19:14:06.392Z,20.80
2017-07-04T19:16:36.105Z,20.80
2017-07-04T19:19:06.157Z,20.70
2017-07-04T19:21:35.802Z,20.70
2017-07-04T19:24:05.668Z,20.60
2017-07-04T19:26:38.782Z,20.50
2017-07-04T19:29:08.499Z,20.50
2017-07-04T19:31:36.772Z,20.40
2017-07-04T19:34:05.043Z,20.30
2017-07-04T19:36:33.267Z,20.20
2017-07-04T19:39:01.467Z,20.10
2017-07-04T19:41:29.673Z,20.00
2017-07-04T19:43:57.973Z,19.90
2017-07-04T19:46:26.253Z,19.90
2017-07-04T19:48:54.454Z,19.70
2017-07-04T19:51:23.642Z,19.70
2017-07-04T19:53:51.854Z,19.70
2017-07-04T19:56:20.084Z,19.60
2017-07-04T19:58:49.094Z,19.50
2017-07-04T20:01:17.303Z,19.40
2017-07-04T20:03:45.524Z,19.30
2017-07-04T20:06:13.726Z,19.30
2017-07-04T20:08:41.935Z,19.20
2017-07-04T20:11:10.222Z,19.10
2017-07-04T20:13:38.416Z,19.10
2017-07-04T20:16:06.644Z,19.00
2017-07-04T20:18:34.849Z,19.00
2017-07-04T20:21:03.067Z,18.90
2017-07-04T20:23:31.363Z,18.70
2017-07-04T20:25:59.645Z,18.60
2017-07-04T20:28:27.897Z,18.60
2017-07-04T20:30:56.206Z,18.50
2017-07-04T20:33:24.436Z,18.50
2017-07-04T20:35:52.638Z,18.40
2017-07-04T20:38:20.844Z,18.40
2017-07-04T20:40:49.046Z,18.40
2017-07-04T20:43:17.383Z,18.40
2017-07-04T20:45:46.347Z,18.20
2017-07-04T20:48:14.573Z,18.20
2017-07-04T20:50:42.779Z,18.20
2017-07-04T20:53:10.998Z,18.20
2017-07-04T20:55:39.202Z,18.10
2017-07-04T20:58:07.469Z,18.00
2017-07-04T21:00:35.733Z,18.00
2017-07-04T21:03:03.948Z,17.90
2017-07-04T21:05:32.211Z,17.90
2017-07-04T21:08:00.704Z,17.80
2017-07-04T21:10:28.928Z,17.80
2017-07-04T21:12:57.132Z,17.80
2017-07-04T21:15:25.333Z,17.80
2017-07-04T21:17:53.670Z,17.70
2017-07-04T21:20:22.643Z,17.50
2017-07-04T21:22:50.855Z,17.50
2017-07-04T21:25:19.092Z,17.50
2017-07-04T21:27:47.303Z,17.40
2017-07-04T21:30:16.294Z,17.40
2017-07-04T21:32:44.521Z,17.40
2017-07-04T21:35:12.734Z,17.40
2017-07-04T21:37:40.952Z,17.40
2017-07-04T21:40:09.163Z,17.30
2017-07-04T21:42:37.383Z,17.30
2017-07-04T21:45:06.340Z,17.30
2017-07-04T21:47:34.715Z,17.30
2017-07-04T21:50:02.965Z,17.20
2017-07-04T21:52:31.172Z,17.20
2017-07-04T21:54:59.401Z,17.20
2017-07-04T21:57:27.670Z,17.20
2017-07-04T21:59:55.874Z,17.10
2017-07-04T22:02:24.090Z,17.10
2017-07-04T22:04:52.307Z,17.10
2017-07-04T22:07:20.702Z,17.00
2017-07-04T22:09:48.938Z,17.00
2017-07-04T22:12:17.246Z,17.00
2017-07-04T22:14:46.345Z,16.90
2017-07-04T22:17:15.312Z,16.90
2017-07-04T22:19:43.521Z,16.80
2017-07-04T22:22:11.727Z,16.90
2017-07-04T22:24:39.949Z,16.80
2017-07-04T22:27:08.168Z,16.80
2017-07-04T22:29:36.380Z,16.80
2017-07-04T22:32:04.639Z,16.80
2017-07-04T22:34:33.613Z,16.70
2017-07-04T22:37:01.815Z,16.70
2017-07-04T22:39:30.146Z,16.70
2017-07-04T22:41:58.439Z,16.70
2017-07-04T22:44:26.659Z,16.70
2017-07-04T22:46:54.887Z,16.70
2017-07-04T22:49:23.147Z,16.70
2017-07-04T22:51:52.135Z,16.70
2017-07-04T22:54:20.328Z,16.70
2017-07-04T22:56:48.585Z,16.60
2017-07-04T22:59:17.566Z,16.70
2017-07-04T23:01:45.787Z,16.70
2017-07-04T23:04:13.983Z,16.70
2017-07-04T23:06:42.227Z,16.70
2017-07-04T23:09:10.410Z,16.70
2017-07-04T23:11:38.633Z,16.70
2017-07-04T23:14:06.835Z,16.70
2017-07-04T23:16:35.034Z,16.70
2017-07-04T23:19:03.229Z,16.70
2017-07-04T23:21:31.458Z,16.60
2017-07-04T23:23:59.678Z,16.60
2017-07-04T23:26:27.897Z,16.60
2017-07-04T23:28:56.093Z,16.60
2017-07-04T23:31:24.293Z,16.60
2017-07-04T23:33:52.507Z,16.60
2017-07-04T23:36:20.847Z,16.60
2017-07-04T23:38:49.132Z,16.50
2017-07-04T23:41:17.340Z,16.50
2017-07-04T23:43:45.867Z,16.50
2017-07-04T23:46:14.139Z,16.50
2017-07-04T23:48:43.140Z,16.50
2017-07-04T23:51:11.352Z,16.50
2017-07-04T23:53:39.560Z,16.50
2017-07-04T23:56:07.883Z,16.50
2017-07-04T23:58:36.169Z,16.50
